Jim Kilabuk — VCKW — position and weather

sailwx.info

Track history (hours):
 
Tides and Currents Weather Stations Pressure Air Temp Water Temp Dewpoint Dewpoint Depression Visibility Wind Speed Wind Dir Waves Ship Positions

Jim Kilabuk

Last reported at 2015-Jul-04 23:33 UTC. Time now 2015-Jul-05 00:09 UTC.
Position N 49°18' W 123°03'.

Length 62 m; draft 4.3 m.

Type: Tug. MMSI: 316232000.

Date/timePositionNaut miles runAvg speedWind from/ knotsBaromVisibWave heightAir tempDewpointWater temp
2015-Jul-04 23:33N 49°18' W 123°03'0 0.0
2015-Jul-04 22:33N 49°18' W 123°03'1 0.8
2015-Jul-04 21:33N 49°18' W 123°04'0 0.0
2015-Jul-04 20:32N 49°18' W 123°04'0 0.0
2015-Jul-04 19:32N 49°18' W 123°04'0 0.0
2015-Jul-04 18:32N 49°18' W 123°04'0 0.0
2015-Jul-04 17:32N 49°18' W 123°04'0 0.0
2015-Jul-04 16:32N 49°18' W 123°04'0 0.0
2015-Jul-04 15:32N 49°18' W 123°04'0 0.0
2015-Jul-04 14:32N 49°18' W 123°04'0 0.0
2015-Jul-04 13:32N 49°18' W 123°04'0 0.0
2015-Jul-04 12:32N 49°18' W 123°04'0 0.0
2015-Jul-04 11:32N 49°18' W 123°04'0 0.0
2015-Jul-04 10:32N 49°18' W 123°04'0 0.0
2015-Jul-04 09:32N 49°18' W 123°04'0 0.0
2015-Jul-04 08:32N 49°18' W 123°04'0 0.0
2015-Jul-04 07:32N 49°18' W 123°04'0 0.0
2015-Jul-04 06:32N 49°18' W 123°04'0 0.0
2015-Jul-04 05:32N 49°18' W 123°04'0 0.0
2015-Jul-04 04:32N 49°18' W 123°04'0 0.0
2015-Jul-04 03:32N 49°18' W 123°04'0 0.0
2015-Jul-04 02:32N 49°18' W 123°04'0 0.0
2015-Jul-04 01:32N 49°18' W 123°04'0 0.0
2015-Jul-04 00:32N 49°18' W 123°04'0 0.0
2015-Jul-03 23:32N 49°18' W 123°04'0 0.0
2015-Jul-03 22:32N 49°18' W 123°04'0 0.0
2015-Jul-03 21:32N 49°18' W 123°04'0 0.1
2015-Jul-03 20:32N 49°18' W 123°04'1 0.6
2015-Jul-03 19:33N 49°18' W 123°05'7 6.6
2015-Jul-03 18:33N 49°20' W 123°15'2 1.7
2015-Jul-03 17:33N 49°19' W 123°17'2 1.7
2015-Jul-03 16:33N 49°20' W 123°15'2 2.4
2015-Jul-03 15:33N 49°18' W 123°17'1010.0
2015-Jul-03 14:33N 49°15' W 123°31'1111.4
2015-Jul-03 13:33N 49°13' W 123°48'6 5.7
2015-Jul-03 12:33N 49°10' W 123°56'0 0.0
2015-Jul-03 11:33N 49°10' W 123°56'0 0.0
2015-Jul-03 10:33N 49°10' W 123°56'0 0.0
2015-Jul-03 09:33N 49°10' W 123°56'0 0.0
2015-Jul-03 08:33N 49°10' W 123°56'0 0.0
2015-Jul-03 07:33N 49°10' W 123°56'0 0.0
2015-Jul-03 06:33N 49°10' W 123°56'0 0.0
2015-Jul-03 05:33N 49°10' W 123°56'0 0.0
2015-Jul-03 04:33N 49°10' W 123°56'0 0.0
2015-Jul-03 03:33N 49°10' W 123°56'0 0.0
2015-Jul-03 02:27N 49°10' W 123°56'0 0.0
2015-Jul-03 01:33N 49°10' W 123°56'0 0.0
2015-Jul-03 00:32N 49°10' W 123°56'0 0.0
2015-Jul-02 23:33N 49°10' W 123°56'0 0.0
2015-Jul-02 22:33N 49°10' W 123°56'0 0.0
2015-Jul-02 21:33N 49°10' W 123°56'0 0.0
2015-Jul-02 20:33N 49°10' W 123°56'0 0.0
2015-Jul-02 19:33N 49°10' W 123°56'0 0.0
2015-Jul-02 18:33N 49°10' W 123°56'0 0.0
2015-Jul-02 17:33N 49°10' W 123°56'0 0.0
2015-Jul-02 16:33N 49°10' W 123°56'0 0.0
2015-Jul-02 15:33N 49°10' W 123°56'0 0.0
2015-Jul-02 14:33N 49°10' W 123°56'0 0.0
2015-Jul-02 13:33N 49°10' W 123°56'0 0.0
2015-Jul-02 12:33N 49°10' W 123°56'0 0.0
2015-Jul-02 11:33N 49°10' W 123°56'0 0.0
2015-Jul-02 10:33N 49°10' W 123°56'0 0.0
2015-Jul-02 09:33N 49°10' W 123°56'0 0.0
2015-Jul-02 08:31N 49°10' W 123°56'0 0.0
2015-Jul-02 07:13N 49°10' W 123°56'0 0.0
2015-Jul-02 06:33N 49°10' W 123°56'0 0.0
2015-Jul-02 05:33N 49°10' W 123°56'0 0.0
2015-Jul-02 04:33N 49°10' W 123°56'0 0.0
2015-Jul-02 03:33N 49°10' W 123°56'0 0.0
2015-Jul-02 02:33N 49°10' W 123°56'0 0.0
2015-Jul-02 01:33N 49°10' W 123°56'0 0.0
2015-Jul-02 00:33N 49°10' W 123°56'0 0.0
2015-Jul-01 23:33N 49°10' W 123°56'0 0.0
2015-Jul-01 22:33N 49°10' W 123°56'0 0.0
2015-Jul-01 21:33N 49°10' W 123°56'0 0.0
2015-Jul-01 20:33N 49°10' W 123°56'0 0.0
2015-Jul-01 19:33N 49°10' W 123°56'0 0.0
2015-Jul-01 18:33N 49°10' W 123°56'0 0.0
2015-Jul-01 17:33N 49°10' W 123°56'0 0.0
2015-Jul-01 16:33N 49°10' W 123°56'0 0.0
2015-Jul-01 15:33N 49°10' W 123°56'0 0.0
2015-Jul-01 14:33N 49°10' W 123°56'0 0.0
2015-Jul-01 13:33N 49°10' W 123°56'0 0.0
2015-Jul-01 12:33N 49°10' W 123°56'0 0.0
2015-Jul-01 11:33N 49°10' W 123°56'0 0.0
2015-Jul-01 10:33N 49°10' W 123°56'0 0.0
2015-Jul-01 09:33N 49°10' W 123°56'0 0.0
2015-Jul-01 08:33N 49°10' W 123°56'0 0.0
2015-Jul-01 07:33N 49°10' W 123°56'0 0.0
2015-Jul-01 06:33N 49°10' W 123°56'0 0.0
2015-Jul-01 05:33N 49°10' W 123°56'0 0.0
2015-Jul-01 04:33N 49°10' W 123°56'0 0.0
2015-Jul-01 03:33N 49°10' W 123°56'0 0.0
2015-Jul-01 02:33N 49°10' W 123°56'0 0.0
2015-Jul-01 01:33N 49°10' W 123°56'0 0.0
2015-Jul-01 00:33N 49°10' W 123°56'0 0.0
2015-Jun-30 23:33N 49°10' W 123°56'0 0.0
2015-Jun-30 22:33N 49°10' W 123°56'0 0.0
2015-Jun-30 21:33N 49°10' W 123°56'0 0.0
2015-Jun-30 20:33N 49°10' W 123°56'0 0.0
2015-Jun-30 19:33N 49°10' W 123°56'0 0.0
2015-Jun-30 18:33N 49°10' W 123°56'0 0.0
2015-Jun-30 17:32N 49°10' W 123°56'0 0.0
2015-Jun-30 16:33N 49°10' W 123°56'0 0.0
2015-Jun-30 15:33N 49°10' W 123°56'0 0.0
2015-Jun-30 14:33N 49°10' W 123°56'0 0.0
2015-Jun-30 13:33N 49°10' W 123°56'0 0.0
2015-Jun-30 12:33N 49°10' W 123°56'0 0.0
2015-Jun-30 11:33N 49°10' W 123°56'0 0.0
2015-Jun-30 10:33N 49°10' W 123°56'0 0.0
2015-Jun-30 09:33N 49°10' W 123°56'0 0.0
2015-Jun-30 08:33N 49°10' W 123°56'0 0.0
2015-Jun-30 07:33N 49°10' W 123°56'0 0.0
2015-Jun-30 06:33N 49°10' W 123°56'0 0.0
2015-Jun-30 05:33N 49°10' W 123°56'0 0.0
2015-Jun-30 04:33N 49°10' W 123°56'0 0.0
2015-Jun-30 03:33N 49°10' W 123°56'0 0.0
2015-Jun-30 02:33N 49°10' W 123°56'0 0.0
2015-Jun-30 01:33N 49°10' W 123°56'0 0.0
2015-Jun-30 00:33N 49°10' W 123°56'0 0.0
2015-Jun-29 23:33N 49°10' W 123°56'0 0.0
2015-Jun-29 22:33N 49°10' W 123°56'0 0.0
2015-Jun-29 21:33N 49°10' W 123°56'0 0.0
2015-Jun-29 20:33N 49°10' W 123°56'0 0.0
2015-Jun-29 19:33N 49°10' W 123°56'0 0.0
2015-Jun-29 18:33N 49°10' W 123°56'0 0.0
2015-Jun-29 17:33N 49°10' W 123°56'0 0.0
2015-Jun-29 16:33N 49°10' W 123°56'0 0.0
2015-Jun-29 15:33N 49°10' W 123°56'0 0.0
2015-Jun-29 14:33N 49°10' W 123°56'0 0.0
2015-Jun-29 13:33N 49°10' W 123°56'0 0.0
2015-Jun-29 12:33N 49°10' W 123°56'0 0.0
2015-Jun-29 11:33N 49°10' W 123°56'0 0.0
2015-Jun-29 10:33N 49°10' W 123°56'0 0.0
2015-Jun-29 09:33N 49°10' W 123°56'0 0.0
2015-Jun-29 08:33N 49°10' W 123°56'0 0.0
2015-Jun-29 07:33N 49°10' W 123°56'0 0.0
2015-Jun-29 06:33N 49°10' W 123°56'0 0.0
2015-Jun-29 05:33N 49°10' W 123°56'0 0.0
2015-Jun-29 04:33N 49°10' W 123°56'0 0.0
2015-Jun-29 03:33N 49°10' W 123°56'0 0.0
2015-Jun-29 02:33N 49°10' W 123°56'0 0.0
2015-Jun-29 01:23N 49°10' W 123°56'0 0.0
2015-Jun-29 00:33N 49°10' W 123°56'0 0.0
2015-Jun-28 23:33N 49°10' W 123°56'0 0.0
2015-Jun-28 22:30N 49°10' W 123°56'0 0.0
2015-Jun-28 21:33N 49°10' W 123°56'0 0.0
2015-Jun-28 20:33N 49°10' W 123°56'0 0.0
2015-Jun-28 19:33N 49°10' W 123°56'0 0.0
2015-Jun-28 18:09N 49°10' W 123°56'0 0.0
2015-Jun-28 17:33N 49°10' W 123°56'0 0.0
2015-Jun-28 16:33N 49°10' W 123°56'0 0.0
2015-Jun-28 15:33N 49°10' W 123°56'0 0.0
2015-Jun-28 14:33N 49°10' W 123°56'0 0.0
2015-Jun-28 13:33N 49°10' W 123°56'0 0.0
2015-Jun-28 12:33N 49°10' W 123°56'0 0.0
2015-Jun-28 11:33N 49°10' W 123°56'0 0.0
2015-Jun-28 10:32N 49°10' W 123°56'0 0.0
2015-Jun-28 09:33N 49°10' W 123°56'0 0.0
2015-Jun-28 08:32N 49°10' W 123°56'0 0.0
2015-Jun-28 07:31N 49°10' W 123°56'0 0.0
2015-Jun-28 06:33N 49°10' W 123°56'0 0.0
2015-Jun-28 05:33N 49°10' W 123°56'0 0.0
2015-Jun-28 04:14N 49°10' W 123°56'0 0.0
2015-Jun-28 03:33N 49°10' W 123°56'0 0.0
2015-Jun-28 02:33N 49°10' W 123°56'0 0.0
2015-Jun-28 01:33N 49°10' W 123°56'0 0.0
2015-Jun-28 00:33N 49°10' W 123°56'0 0.0
2015-Jun-27 23:33N 49°10' W 123°56'0 0.0
2015-Jun-27 22:24N 49°10' W 123°56'0 0.0
2015-Jun-27 21:28N 49°10' W 123°56'0 0.0
2015-Jun-27 20:33N 49°10' W 123°56'0 0.0
2015-Jun-27 19:33N 49°10' W 123°56'0 0.0
2015-Jun-27 18:33N 49°10' W 123°56'0 0.0
2015-Jun-27 17:33N 49°10' W 123°56'0 0.0
2015-Jun-27 16:33N 49°10' W 123°56'0 0.0
2015-Jun-27 15:33N 49°10' W 123°56'0 0.0
2015-Jun-27 14:33N 49°10' W 123°56'0 0.0
2015-Jun-27 13:33N 49°10' W 123°56'0 0.0
2015-Jun-27 12:33N 49°10' W 123°56'0 0.0
2015-Jun-27 11:33N 49°10' W 123°56'0 0.0
2015-Jun-27 10:33N 49°10' W 123°56'0 0.0
2015-Jun-27 09:33N 49°10' W 123°56'0 0.0
2015-Jun-27 08:33N 49°10' W 123°56'0 0.0
2015-Jun-27 07:33N 49°10' W 123°56'0 0.0
2015-Jun-27 06:33N 49°10' W 123°56'0 0.0
2015-Jun-27 05:33N 49°10' W 123°56'0 0.0
2015-Jun-27 04:33N 49°10' W 123°56'0 0.0
2015-Jun-27 03:33N 49°10' W 123°56'0 0.0
2015-Jun-27 02:33N 49°10' W 123°56'0 0.0
2015-Jun-27 01:33N 49°10' W 123°56'0 0.0
2015-Jun-27 00:33N 49°10' W 123°56'0 0.0
2015-Jun-26 23:33N 49°10' W 123°56'0 0.0
2015-Jun-26 22:33N 49°10' W 123°56'0 0.0
2015-Jun-26 21:33N 49°10' W 123°56'0 0.0
2015-Jun-26 20:33N 49°10' W 123°56'0 0.0
2015-Jun-26 19:33N 49°10' W 123°56'0 0.0
2015-Jun-26 18:33N 49°10' W 123°56'0 0.0
2015-Jun-26 17:33N 49°10' W 123°56'0 0.0
2015-Jun-26 16:33N 49°10' W 123°56'0 0.0
2015-Jun-26 15:33N 49°10' W 123°56'0 0.0
2015-Jun-26 14:34N 49°10' W 123°56'0 0.0
2015-Jun-26 13:34N 49°10' W 123°56'0 0.0
2015-Jun-26 12:33N 49°10' W 123°56'0 0.0
2015-Jun-26 11:34N 49°10' W 123°56'0 0.0
2015-Jun-26 10:33N 49°10' W 123°56'0 0.0
2015-Jun-26 09:34N 49°10' W 123°56'0 0.0
2015-Jun-26 08:33N 49°10' W 123°56'0 0.0
2015-Jun-26 07:33N 49°10' W 123°56'0 0.0
2015-Jun-26 06:34N 49°10' W 123°56'0 0.0
2015-Jun-26 05:34N 49°10' W 123°56'0 0.0
2015-Jun-26 04:33N 49°10' W 123°56'0 0.0
2015-Jun-26 03:33N 49°10' W 123°56'0 0.0
2015-Jun-26 02:33N 49°10' W 123°56'0 0.0
2015-Jun-26 01:33N 49°10' W 123°56'0 0.0
2015-Jun-26 00:33N 49°10' W 123°56'0 0.0
2015-Jun-25 23:33N 49°10' W 123°56'0 0.0
2015-Jun-25 22:31N 49°10' W 123°56'0 0.0
2015-Jun-25 21:33N 49°10' W 123°56'0 0.0
2015-Jun-25 20:33N 49°10' W 123°56'0 0.0
2015-Jun-25 19:33N 49°10' W 123°56'0 0.0
2015-Jun-25 18:33N 49°10' W 123°56'0 0.0
2015-Jun-25 17:33N 49°10' W 123°56'0 0.0
2015-Jun-25 16:33N 49°10' W 123°56'0 0.0
2015-Jun-25 15:33N 49°10' W 123°56'0 0.0
2015-Jun-25 14:33N 49°10' W 123°56'0 0.0
2015-Jun-25 13:33N 49°10' W 123°56'0 0.0
2015-Jun-25 12:33N 49°10' W 123°56'0 0.0
2015-Jun-25 11:33N 49°10' W 123°56'0 0.0
2015-Jun-25 10:33N 49°10' W 123°56'0 0.0
2015-Jun-25 09:33N 49°10' W 123°56'0 0.0
2015-Jun-25 08:33N 49°10' W 123°56'0 0.0
2015-Jun-25 07:33N 49°10' W 123°56'0 0.0
2015-Jun-25 06:33N 49°10' W 123°56'0 0.0
2015-Jun-25 05:33N 49°10' W 123°56'0 0.0
2015-Jun-25 04:33N 49°10' W 123°56'0 0.0
2015-Jun-25 03:33N 49°10' W 123°56'0 0.0
2015-Jun-25 02:33N 49°10' W 123°56'0 0.0
2015-Jun-25 01:33N 49°10' W 123°56'0 0.0
2015-Jun-25 00:33N 49°10' W 123°56'  
Track history (hours):
 
Tides and Currents Weather Stations Pressure Air Temp Water Temp Dewpoint Dewpoint Depression Visibility Wind Speed Wind Dir Waves Ship Positions

Jim Kilabuk

Last reported at 2015-Jul-04 23:33 UTC. Time now 2015-Jul-05 00:09 UTC.
Position N 49°18' W 123°03'.

Length 62 m; draft 4.3 m.

Type: Tug. MMSI: 316232000.

Date/timePositionNaut miles runAvg speedWind from/ knotsBaromVisibWave heightAir tempDewpointWater temp
2015-Jul-04 23:33N 49°18' W 123°03'0 0.0
2015-Jul-04 22:33N 49°18' W 123°03'1 0.8
2015-Jul-04 21:33N 49°18' W 123°04'0 0.0
2015-Jul-04 20:32N 49°18' W 123°04'0 0.0
2015-Jul-04 19:32N 49°18' W 123°04'0 0.0
2015-Jul-04 18:32N 49°18' W 123°04'0 0.0
2015-Jul-04 17:32N 49°18' W 123°04'0 0.0
2015-Jul-04 16:32N 49°18' W 123°04'0 0.0
2015-Jul-04 15:32N 49°18' W 123°04'0 0.0
2015-Jul-04 14:32N 49°18' W 123°04'0 0.0
2015-Jul-04 13:32N 49°18' W 123°04'0 0.0
2015-Jul-04 12:32N 49°18' W 123°04'0 0.0
2015-Jul-04 11:32N 49°18' W 123°04'0 0.0
2015-Jul-04 10:32N 49°18' W 123°04'0 0.0
2015-Jul-04 09:32N 49°18' W 123°04'0 0.0
2015-Jul-04 08:32N 49°18' W 123°04'0 0.0
2015-Jul-04 07:32N 49°18' W 123°04'0 0.0
2015-Jul-04 06:32N 49°18' W 123°04'0 0.0
2015-Jul-04 05:32N 49°18' W 123°04'0 0.0
2015-Jul-04 04:32N 49°18' W 123°04'0 0.0
2015-Jul-04 03:32N 49°18' W 123°04'0 0.0
2015-Jul-04 02:32N 49°18' W 123°04'0 0.0
2015-Jul-04 01:32N 49°18' W 123°04'0 0.0
2015-Jul-04 00:32N 49°18' W 123°04'0 0.0
2015-Jul-03 23:32N 49°18' W 123°04'0 0.0
2015-Jul-03 22:32N 49°18' W 123°04'0 0.0
2015-Jul-03 21:32N 49°18' W 123°04'0 0.1
2015-Jul-03 20:32N 49°18' W 123°04'1 0.6
2015-Jul-03 19:33N 49°18' W 123°05'7 6.6
2015-Jul-03 18:33N 49°20' W 123°15'2 1.7
2015-Jul-03 17:33N 49°19' W 123°17'2 1.7
2015-Jul-03 16:33N 49°20' W 123°15'2 2.4
2015-Jul-03 15:33N 49°18' W 123°17'1010.0
2015-Jul-03 14:33N 49°15' W 123°31'1111.4
2015-Jul-03 13:33N 49°13' W 123°48'6 5.7
2015-Jul-03 12:33N 49°10' W 123°56'0 0.0
2015-Jul-03 11:33N 49°10' W 123°56'0 0.0
2015-Jul-03 10:33N 49°10' W 123°56'0 0.0
2015-Jul-03 09:33N 49°10' W 123°56'0 0.0
2015-Jul-03 08:33N 49°10' W 123°56'0 0.0
2015-Jul-03 07:33N 49°10' W 123°56'0 0.0
2015-Jul-03 06:33N 49°10' W 123°56'0 0.0
2015-Jul-03 05:33N 49°10' W 123°56'0 0.0
2015-Jul-03 04:33N 49°10' W 123°56'0 0.0
2015-Jul-03 03:33N 49°10' W 123°56'0 0.0
2015-Jul-03 02:27N 49°10' W 123°56'0 0.0
2015-Jul-03 01:33N 49°10' W 123°56'0 0.0
2015-Jul-03 00:32N 49°10' W 123°56'0 0.0
2015-Jul-02 23:33N 49°10' W 123°56'0 0.0
2015-Jul-02 22:33N 49°10' W 123°56'0 0.0
2015-Jul-02 21:33N 49°10' W 123°56'0 0.0
2015-Jul-02 20:33N 49°10' W 123°56'0 0.0
2015-Jul-02 19:33N 49°10' W 123°56'0 0.0
2015-Jul-02 18:33N 49°10' W 123°56'0 0.0
2015-Jul-02 17:33N 49°10' W 123°56'0 0.0
2015-Jul-02 16:33N 49°10' W 123°56'0 0.0
2015-Jul-02 15:33N 49°10' W 123°56'0 0.0
2015-Jul-02 14:33N 49°10' W 123°56'0 0.0
2015-Jul-02 13:33N 49°10' W 123°56'0 0.0
2015-Jul-02 12:33N 49°10' W 123°56'0 0.0
2015-Jul-02 11:33N 49°10' W 123°56'0 0.0
2015-Jul-02 10:33N 49°10' W 123°56'0 0.0
2015-Jul-02 09:33N 49°10' W 123°56'0 0.0
2015-Jul-02 08:31N 49°10' W 123°56'0 0.0
2015-Jul-02 07:13N 49°10' W 123°56'0 0.0
2015-Jul-02 06:33N 49°10' W 123°56'0 0.0
2015-Jul-02 05:33N 49°10' W 123°56'0 0.0
2015-Jul-02 04:33N 49°10' W 123°56'0 0.0
2015-Jul-02 03:33N 49°10' W 123°56'0 0.0
2015-Jul-02 02:33N 49°10' W 123°56'0 0.0
2015-Jul-02 01:33N 49°10' W 123°56'0 0.0
2015-Jul-02 00:33N 49°10' W 123°56'0 0.0
2015-Jul-01 23:33N 49°10' W 123°56'0 0.0
2015-Jul-01 22:33N 49°10' W 123°56'0 0.0
2015-Jul-01 21:33N 49°10' W 123°56'0 0.0
2015-Jul-01 20:33N 49°10' W 123°56'0 0.0
2015-Jul-01 19:33N 49°10' W 123°56'0 0.0
2015-Jul-01 18:33N 49°10' W 123°56'0 0.0
2015-Jul-01 17:33N 49°10' W 123°56'0 0.0
2015-Jul-01 16:33N 49°10' W 123°56'0 0.0
2015-Jul-01 15:33N 49°10' W 123°56'0 0.0
2015-Jul-01 14:33N 49°10' W 123°56'0 0.0
2015-Jul-01 13:33N 49°10' W 123°56'0 0.0
2015-Jul-01 12:33N 49°10' W 123°56'0 0.0
2015-Jul-01 11:33N 49°10' W 123°56'0 0.0
2015-Jul-01 10:33N 49°10' W 123°56'0 0.0
2015-Jul-01 09:33N 49°10' W 123°56'0 0.0
2015-Jul-01 08:33N 49°10' W 123°56'0 0.0
2015-Jul-01 07:33N 49°10' W 123°56'0 0.0
2015-Jul-01 06:33N 49°10' W 123°56'0 0.0
2015-Jul-01 05:33N 49°10' W 123°56'0 0.0
2015-Jul-01 04:33N 49°10' W 123°56'0 0.0
2015-Jul-01 03:33N 49°10' W 123°56'0 0.0
2015-Jul-01 02:33N 49°10' W 123°56'0 0.0
2015-Jul-01 01:33N 49°10' W 123°56'0 0.0
2015-Jul-01 00:33N 49°10' W 123°56'0 0.0
2015-Jun-30 23:33N 49°10' W 123°56'0 0.0
2015-Jun-30 22:33N 49°10' W 123°56'0 0.0
2015-Jun-30 21:33N 49°10' W 123°56'0 0.0
2015-Jun-30 20:33N 49°10' W 123°56'0 0.0
2015-Jun-30 19:33N 49°10' W 123°56'0 0.0
2015-Jun-30 18:33N 49°10' W 123°56'0 0.0
2015-Jun-30 17:32N 49°10' W 123°56'0 0.0
2015-Jun-30 16:33N 49°10' W 123°56'0 0.0
2015-Jun-30 15:33N 49°10' W 123°56'0 0.0
2015-Jun-30 14:33N 49°10' W 123°56'0 0.0
2015-Jun-30 13:33N 49°10' W 123°56'0 0.0
2015-Jun-30 12:33N 49°10' W 123°56'0 0.0
2015-Jun-30 11:33N 49°10' W 123°56'0 0.0
2015-Jun-30 10:33N 49°10' W 123°56'0 0.0
2015-Jun-30 09:33N 49°10' W 123°56'0 0.0
2015-Jun-30 08:33N 49°10' W 123°56'0 0.0
2015-Jun-30 07:33N 49°10' W 123°56'0 0.0
2015-Jun-30 06:33N 49°10' W 123°56'0 0.0
2015-Jun-30 05:33N 49°10' W 123°56'0 0.0
2015-Jun-30 04:33N 49°10' W 123°56'0 0.0
2015-Jun-30 03:33N 49°10' W 123°56'0 0.0
2015-Jun-30 02:33N 49°10' W 123°56'0 0.0
2015-Jun-30 01:33N 49°10' W 123°56'0 0.0
2015-Jun-30 00:33N 49°10' W 123°56'0 0.0
2015-Jun-29 23:33N 49°10' W 123°56'0 0.0
2015-Jun-29 22:33N 49°10' W 123°56'0 0.0
2015-Jun-29 21:33N 49°10' W 123°56'0 0.0
2015-Jun-29 20:33N 49°10' W 123°56'0 0.0
2015-Jun-29 19:33N 49°10' W 123°56'0 0.0
2015-Jun-29 18:33N 49°10' W 123°56'0 0.0
2015-Jun-29 17:33N 49°10' W 123°56'0 0.0
2015-Jun-29 16:33N 49°10' W 123°56'0 0.0
2015-Jun-29 15:33N 49°10' W 123°56'0 0.0
2015-Jun-29 14:33N 49°10' W 123°56'0 0.0
2015-Jun-29 13:33N 49°10' W 123°56'0 0.0
2015-Jun-29 12:33N 49°10' W 123°56'0 0.0
2015-Jun-29 11:33N 49°10' W 123°56'0 0.0
2015-Jun-29 10:33N 49°10' W 123°56'0 0.0
2015-Jun-29 09:33N 49°10' W 123°56'0 0.0
2015-Jun-29 08:33N 49°10' W 123°56'0 0.0
2015-Jun-29 07:33N 49°10' W 123°56'0 0.0
2015-Jun-29 06:33N 49°10' W 123°56'0 0.0
2015-Jun-29 05:33N 49°10' W 123°56'0 0.0
2015-Jun-29 04:33N 49°10' W 123°56'0 0.0
2015-Jun-29 03:33N 49°10' W 123°56'0 0.0
2015-Jun-29 02:33N 49°10' W 123°56'0 0.0
2015-Jun-29 01:23N 49°10' W 123°56'0 0.0
2015-Jun-29 00:33N 49°10' W 123°56'0 0.0
2015-Jun-28 23:33N 49°10' W 123°56'0 0.0
2015-Jun-28 22:30N 49°10' W 123°56'0 0.0
2015-Jun-28 21:33N 49°10' W 123°56'0 0.0
2015-Jun-28 20:33N 49°10' W 123°56'0 0.0
2015-Jun-28 19:33N 49°10' W 123°56'0 0.0
2015-Jun-28 18:09N 49°10' W 123°56'0 0.0
2015-Jun-28 17:33N 49°10' W 123°56'0 0.0
2015-Jun-28 16:33N 49°10' W 123°56'0 0.0
2015-Jun-28 15:33N 49°10' W 123°56'0 0.0
2015-Jun-28 14:33N 49°10' W 123°56'0 0.0
2015-Jun-28 13:33N 49°10' W 123°56'0 0.0
2015-Jun-28 12:33N 49°10' W 123°56'0 0.0
2015-Jun-28 11:33N 49°10' W 123°56'0 0.0
2015-Jun-28 10:32N 49°10' W 123°56'0 0.0
2015-Jun-28 09:33N 49°10' W 123°56'0 0.0
2015-Jun-28 08:32N 49°10' W 123°56'0 0.0
2015-Jun-28 07:31N 49°10' W 123°56'0 0.0
2015-Jun-28 06:33N 49°10' W 123°56'0 0.0
2015-Jun-28 05:33N 49°10' W 123°56'0 0.0
2015-Jun-28 04:14N 49°10' W 123°56'0 0.0
2015-Jun-28 03:33N 49°10' W 123°56'0 0.0
2015-Jun-28 02:33N 49°10' W 123°56'0 0.0
2015-Jun-28 01:33N 49°10' W 123°56'0 0.0
2015-Jun-28 00:33N 49°10' W 123°56'0 0.0
2015-Jun-27 23:33N 49°10' W 123°56'0 0.0
2015-Jun-27 22:24N 49°10' W 123°56'0 0.0
2015-Jun-27 21:28N 49°10' W 123°56'0 0.0
2015-Jun-27 20:33N 49°10' W 123°56'0 0.0
2015-Jun-27 19:33N 49°10' W 123°56'0 0.0
2015-Jun-27 18:33N 49°10' W 123°56'0 0.0
2015-Jun-27 17:33N 49°10' W 123°56'0 0.0
2015-Jun-27 16:33N 49°10' W 123°56'0 0.0
2015-Jun-27 15:33N 49°10' W 123°56'0 0.0
2015-Jun-27 14:33N 49°10' W 123°56'0 0.0
2015-Jun-27 13:33N 49°10' W 123°56'0 0.0
2015-Jun-27 12:33N 49°10' W 123°56'0 0.0
2015-Jun-27 11:33N 49°10' W 123°56'0 0.0
2015-Jun-27 10:33N 49°10' W 123°56'0 0.0
2015-Jun-27 09:33N 49°10' W 123°56'0 0.0
2015-Jun-27 08:33N 49°10' W 123°56'0 0.0
2015-Jun-27 07:33N 49°10' W 123°56'0 0.0
2015-Jun-27 06:33N 49°10' W 123°56'0 0.0
2015-Jun-27 05:33N 49°10' W 123°56'0 0.0
2015-Jun-27 04:33N 49°10' W 123°56'0 0.0
2015-Jun-27 03:33N 49°10' W 123°56'0 0.0
2015-Jun-27 02:33N 49°10' W 123°56'0 0.0
2015-Jun-27 01:33N 49°10' W 123°56'0 0.0
2015-Jun-27 00:33N 49°10' W 123°56'0 0.0
2015-Jun-26 23:33N 49°10' W 123°56'0 0.0
2015-Jun-26 22:33N 49°10' W 123°56'0 0.0
2015-Jun-26 21:33N 49°10' W 123°56'0 0.0
2015-Jun-26 20:33N 49°10' W 123°56'0 0.0
2015-Jun-26 19:33N 49°10' W 123°56'0 0.0
2015-Jun-26 18:33N 49°10' W 123°56'0 0.0
2015-Jun-26 17:33N 49°10' W 123°56'0 0.0
2015-Jun-26 16:33N 49°10' W 123°56'0 0.0
2015-Jun-26 15:33N 49°10' W 123°56'0 0.0
2015-Jun-26 14:34N 49°10' W 123°56'0 0.0
2015-Jun-26 13:34N 49°10' W 123°56'0 0.0
2015-Jun-26 12:33N 49°10' W 123°56'0 0.0
2015-Jun-26 11:34N 49°10' W 123°56'0 0.0
2015-Jun-26 10:33N 49°10' W 123°56'0 0.0
2015-Jun-26 09:34N 49°10' W 123°56'0 0.0
2015-Jun-26 08:33N 49°10' W 123°56'0 0.0
2015-Jun-26 07:33N 49°10' W 123°56'0 0.0
2015-Jun-26 06:34N 49°10' W 123°56'0 0.0
2015-Jun-26 05:34N 49°10' W 123°56'0 0.0
2015-Jun-26 04:33N 49°10' W 123°56'0 0.0
2015-Jun-26 03:33N 49°10' W 123°56'0 0.0
2015-Jun-26 02:33N 49°10' W 123°56'0 0.0
2015-Jun-26 01:33N 49°10' W 123°56'0 0.0
2015-Jun-26 00:33N 49°10' W 123°56'0 0.0
2015-Jun-25 23:33N 49°10' W 123°56'0 0.0
2015-Jun-25 22:31N 49°10' W 123°56'0 0.0
2015-Jun-25 21:33N 49°10' W 123°56'0 0.0
2015-Jun-25 20:33N 49°10' W 123°56'0 0.0
2015-Jun-25 19:33N 49°10' W 123°56'0 0.0
2015-Jun-25 18:33N 49°10' W 123°56'0 0.0
2015-Jun-25 17:33N 49°10' W 123°56'0 0.0
2015-Jun-25 16:33N 49°10' W 123°56'0 0.0
2015-Jun-25 15:33N 49°10' W 123°56'0 0.0
2015-Jun-25 14:33N 49°10' W 123°56'0 0.0
2015-Jun-25 13:33N 49°10' W 123°56'0 0.0
2015-Jun-25 12:33N 49°10' W 123°56'0 0.0
2015-Jun-25 11:33N 49°10' W 123°56'0 0.0
2015-Jun-25 10:33N 49°10' W 123°56'0 0.0
2015-Jun-25 09:33N 49°10' W 123°56'0 0.0
2015-Jun-25 08:33N 49°10' W 123°56'0 0.0
2015-Jun-25 07:33N 49°10' W 123°56'0 0.0
2015-Jun-25 06:33N 49°10' W 123°56'0 0.0
2015-Jun-25 05:33N 49°10' W 123°56'0 0.0
2015-Jun-25 04:33N 49°10' W 123°56'0 0.0
2015-Jun-25 03:33N 49°10' W 123°56'0 0.0
2015-Jun-25 02:33N 49°10' W 123°56'0 0.0
2015-Jun-25 01:33N 49°10' W 123°56'0 0.0
2015-Jun-25 00:33N 49°10' W 123°56'  

Dump ship's entire track history